createdAt,value
2023-09-13T00:00:00.654Z,0.0
2023-09-13T00:05:01.048Z,0.0
2023-09-13T00:10:00.713Z,0.0
2023-09-13T00:15:00.716Z,0.0
2023-09-13T00:20:00.672Z,0.0
2023-09-13T00:25:00.662Z,0.0
2023-09-13T00:30:00.660Z,0.0
2023-09-13T00:35:00.572Z,0.0
2023-09-13T00:40:00.966Z,0.0
2023-09-13T00:45:00.562Z,0.0
2023-09-13T00:50:01.525Z,0.0
2023-09-13T00:55:02.205Z,0.0
2023-09-13T01:00:01.602Z,0.0
2023-09-13T01:05:00.763Z,0.0
2023-09-13T01:10:01.400Z,0.0
2023-09-13T01:15:02.304Z,0.0
2023-09-13T01:20:06.581Z,0.0
2023-09-13T01:25:18.638Z,0.0
2023-09-13T01:30:01.369Z,0.0
2023-09-13T01:35:00.625Z,0.0
2023-09-13T01:40:00.950Z,0.0
2023-09-13T01:45:00.881Z,0.0
2023-09-13T01:50:01.218Z,0.0
2023-09-13T01:55:04.534Z,0.0
2023-09-13T02:00:00.669Z,0.0
2023-09-13T02:05:00.686Z,0.0
2023-09-13T02:10:00.891Z,0.0
2023-09-13T02:15:00.569Z,0.0
2023-09-13T02:20:00.837Z,0.0
2023-09-13T02:25:00.663Z,0.0
2023-09-13T02:30:02.080Z,0.0
2023-09-13T02:35:01.477Z,0.0
2023-09-13T02:40:00.872Z,0.0
2023-09-13T02:45:00.579Z,0.0
2023-09-13T02:50:01.157Z,0.0
2023-09-13T02:55:01.590Z,5201.0
2023-09-13T03:00:00.896Z,5201.0
2023-09-13T03:05:00.924Z,9011.0
2023-09-13T03:10:00.794Z,5201.0
2023-09-13T03:15:00.641Z,9011.0
2023-09-13T03:20:00.817Z,5201.0
2023-09-13T03:25:00.598Z,5201.0
2023-09-13T03:30:00.652Z,6471.0
2023-09-13T03:35:00.537Z,6153.5
2023-09-13T03:40:00.695Z,6153.5
2023-09-13T03:45:00.553Z,5963.0
2023-09-13T03:50:00.675Z,5963.0
2023-09-13T03:55:00.822Z,5836.0
2023-09-13T04:00:00.619Z,5201.0
2023-09-13T04:05:00.710Z,6471.0
2023-09-13T04:10:00.673Z,5745.3
2023-09-13T04:15:00.652Z,6289.6
2023-09-13T04:20:00.750Z,5677.2
2023-09-13T04:25:00.607Z,6289.6
2023-09-13T04:30:00.720Z,6153.5
2023-09-13T04:35:00.552Z,6153.5
2023-09-13T04:40:01.400Z,6153.5
2023-09-13T04:45:00.597Z,6629.8
2023-09-13T04:50:00.756Z,6047.7
2023-09-13T04:55:00.981Z,6047.7
2023-09-13T05:00:00.642Z,6471.0
2023-09-13T05:05:00.619Z,6471.0
2023-09-13T05:10:00.720Z,5963.0
2023-09-13T05:15:00.568Z,5963.0
2023-09-13T05:20:00.872Z,6344.0
2023-09-13T05:25:00.573Z,6344.0
2023-09-13T05:30:00.794Z,5963.0
2023-09-13T05:35:00.824Z,6344.0
2023-09-13T05:40:00.840Z,6344.0
2023-09-13T05:45:00.950Z,6240.1
2023-09-13T05:50:00.626Z,6240.1
2023-09-13T05:55:00.700Z,5893.7
2023-09-13T06:00:00.990Z,6240.1
2023-09-13T06:05:01.017Z,6240.1
2023-09-13T06:10:00.666Z,6240.1
2023-09-13T06:15:00.596Z,6240.1
2023-09-13T06:20:00.646Z,6153.5
2023-09-13T06:25:02.520Z,6153.5
2023-09-13T06:30:00.664Z,6153.5
2023-09-13T06:35:00.947Z,6153.5
2023-09-13T06:40:01.160Z,6153.5
2023-09-13T06:45:20.101Z,6080.2
2023-09-13T06:55:03.137Z,6080.2
2023-09-13T07:00:01.539Z,6080.2
2023-09-13T07:10:00.640Z,6017.4
2023-09-13T07:15:00.642Z,5709.0
2023-09-13T07:20:00.695Z,6017.4
2023-09-13T07:25:00.533Z,5963.0
2023-09-13T07:30:00.740Z,5963.0
2023-09-13T07:35:00.653Z,5677.2
2023-09-13T07:40:00.655Z,5624.3
2023-09-13T07:45:00.574Z,5391.5
2023-09-13T07:50:01.438Z,5201.0
2023-09-13T07:55:00.589Z,4874.4
2023-09-13T08:00:00.851Z,4892.1
2023-09-13T08:05:00.655Z,4892.1
2023-09-13T08:10:00.880Z,4892.1
2023-09-13T08:15:00.834Z,4907.9
2023-09-13T08:20:01.046Z,4928.9
2023-09-13T08:25:00.788Z,4804.1
2023-09-13T08:30:00.781Z,4820.0
2023-09-13T08:35:00.608Z,4761.4
2023-09-13T08:40:00.873Z,4733.1
2023-09-13T08:45:00.702Z,4756.5
2023-09-13T08:50:02.458Z,4724.8
2023-09-13T08:55:01.513Z,4681.5
2023-09-13T09:00:00.667Z,4704.0
2023-09-13T09:05:02.743Z,4699.7
2023-09-13T09:10:01.559Z,4756.5
2023-09-13T09:15:01.554Z,4604.3
2023-09-13T09:20:00.925Z,4625.1
2023-09-13T09:25:01.532Z,4614.8
2023-09-13T09:30:02.204Z,4639.5
2023-09-13T09:35:00.694Z,4611.8
2023-09-13T09:40:01.542Z,4601.7
2023-09-13T09:45:00.592Z,4590.0
2023-09-13T09:50:04.610Z,4612.2
2023-09-13T09:55:00.658Z,4594.1
2023-09-13T10:00:00.824Z,4597.8
2023-09-13T10:05:00.663Z,4581.5
2023-09-13T10:10:00.712Z,4546.2
2023-09-13T10:15:03.737Z,4599.4
2023-09-13T10:20:01.638Z,4556.7
2023-09-13T10:25:02.766Z,4547.9
2023-09-13T10:30:01.848Z,4544.1
2023-09-13T10:35:01.477Z,4540.6
2023-09-13T10:45:02.066Z,4530.1
2023-09-13T10:50:02.127Z,4546.5
2023-09-13T11:00:03.167Z,4506.2
2023-09-13T11:05:00.983Z,4476.4
2023-09-13T11:10:03.820Z,4496.3
2023-09-13T11:15:12.344Z,4515.2
2023-09-13T11:20:20.231Z,4472.3
2023-09-13T11:25:15.330Z,4467.5
2023-09-13T11:30:00.719Z,4478.8
2023-09-13T11:35:01.297Z,4469.3
2023-09-13T11:40:12.152Z,4560.7
2023-09-13T11:45:03.885Z,4456.2
2023-09-13T11:50:11.938Z,4526.3
2023-09-13T11:55:06.794Z,4418.8
2023-09-13T12:00:01.241Z,4607.2
2023-09-13T12:05:11.010Z,4550.5
2023-09-13T12:10:03.816Z,4714.6
2023-09-13T12:15:02.732Z,4714.6
2023-09-13T12:20:00.582Z,4605.7
2023-09-13T12:25:00.676Z,4513.1
2023-09-13T12:30:05.092Z,4477.1
2023-09-13T12:35:02.051Z,4424.9
2023-09-13T12:40:11.167Z,4302.0
2023-09-13T12:45:03.891Z,4299.7
2023-09-13T12:50:01.964Z,4258.7
2023-09-13T12:55:02.474Z,4258.3
2023-09-13T13:00:00.829Z,4439.0
2023-09-13T13:05:00.814Z,4566.0
2023-09-13T13:10:04.378Z,4318.7
2023-09-13T13:15:00.665Z,4428.0
2023-09-13T13:20:21.413Z,4471.4
2023-09-13T13:25:00.629Z,4928.9
2023-09-13T13:30:00.603Z,4566.0
2023-09-13T13:35:00.772Z,4204.5
2023-09-13T13:40:00.575Z,4416.6
2023-09-13T13:45:00.635Z,4190.2
2023-09-13T13:50:00.792Z,4000.6
2023-09-13T13:55:00.617Z,4124.3
2023-09-13T14:00:00.603Z,4153.2
2023-09-13T14:05:00.639Z,4192.5
2023-09-13T14:10:01.091Z,4080.4
2023-09-13T14:15:00.820Z,4028.7
2023-09-13T14:20:00.609Z,4028.7
2023-09-13T14:25:00.696Z,4335.1
2023-09-13T14:30:00.609Z,4304.5
2023-09-13T14:35:00.765Z,4354.3
2023-09-13T14:40:00.569Z,4304.5
2023-09-13T14:45:01.031Z,3596.8
2023-09-13T14:50:00.793Z,3238.3
2023-09-13T14:55:00.690Z,3205.3
2023-09-13T15:00:01.689Z,3480.4
2023-09-13T15:05:01.247Z,3596.8
2023-09-13T15:10:00.824Z,2931.2
2023-09-13T15:15:00.805Z,3613.5
2023-09-13T15:20:00.640Z,4248.5
2023-09-13T15:25:00.861Z,4112.4
2023-09-13T15:30:00.614Z,3296.0
2023-09-13T15:35:00.662Z,3677.0
2023-09-13T15:40:06.762Z,5201.0
2023-09-13T15:45:00.664Z,5201.0
2023-09-13T15:50:00.613Z,5201.0
2023-09-13T15:55:00.928Z,5201.0
2023-09-13T16:00:00.574Z,5201.0
2023-09-13T16:05:00.724Z,0.0
2023-09-13T16:10:01.732Z,0.0
2023-09-13T16:15:01.774Z,0.0
2023-09-13T16:20:01.043Z,0.0
2023-09-13T16:25:00.668Z,0.0
2023-09-13T16:30:04.110Z,0.0
2023-09-13T16:40:00.665Z,0.0
2023-09-13T16:45:00.598Z,0.0
2023-09-13T16:50:00.853Z,0.0
2023-09-13T16:55:00.699Z,0.0
2023-09-13T17:00:01.030Z,0.0
2023-09-13T17:05:00.567Z,0.0
2023-09-13T17:10:00.738Z,0.0
2023-09-13T17:15:00.571Z,0.0
2023-09-13T17:20:00.757Z,0.0
2023-09-13T17:25:00.572Z,0.0
2023-09-13T17:30:00.637Z,0.0
2023-09-13T17:35:01.324Z,0.0
2023-09-13T17:40:00.664Z,0.0
2023-09-13T17:45:00.642Z,0.0
2023-09-13T17:50:00.868Z,0.0
2023-09-13T17:55:00.663Z,0.0
2023-09-13T18:00:00.679Z,0.0
2023-09-13T18:05:00.574Z,0.0
2023-09-13T18:10:00.902Z,0.0
2023-09-13T18:15:00.869Z,0.0
2023-09-13T18:20:00.868Z,0.0
2023-09-13T18:25:01.185Z,0.0
2023-09-13T18:30:01.300Z,0.0
2023-09-13T18:35:00.591Z,0.0
2023-09-13T18:40:00.720Z,0.0
2023-09-13T18:45:00.921Z,0.0
2023-09-13T18:50:00.619Z,0.0
2023-09-13T18:55:00.688Z,0.0
2023-09-13T19:00:01.141Z,0.0
2023-09-13T19:05:00.588Z,0.0
2023-09-13T19:10:00.804Z,0.0
2023-09-13T19:15:00.576Z,0.0
2023-09-13T19:20:00.710Z,0.0
2023-09-13T19:25:01.025Z,0.0
2023-09-13T19:30:00.968Z,0.0
2023-09-13T19:35:00.893Z,0.0
2023-09-13T19:40:00.781Z,0.0
2023-09-13T19:45:00.718Z,0.0
2023-09-13T19:50:00.644Z,0.0
2023-09-13T19:55:00.809Z,0.0
2023-09-13T20:00:00.633Z,0.0
2023-09-13T20:05:00.600Z,0.0
2023-09-13T20:10:01.244Z,0.0
2023-09-13T20:15:00.604Z,0.0
2023-09-13T20:20:00.888Z,0.0
2023-09-13T20:25:00.857Z,0.0
2023-09-13T20:30:00.917Z,0.0
2023-09-13T20:35:01.482Z,0.0
2023-09-13T20:40:01.629Z,0.0
2023-09-13T20:45:00.684Z,0.0
2023-09-13T20:50:00.628Z,0.0
2023-09-13T20:55:00.596Z,0.0
2023-09-13T21:00:00.687Z,0.0
2023-09-13T21:05:00.616Z,0.0
2023-09-13T21:10:00.960Z,0.0
2023-09-13T21:15:00.605Z,0.0
2023-09-13T21:20:00.679Z,0.0
2023-09-13T21:25:00.611Z,0.0
2023-09-13T21:30:00.893Z,0.0
2023-09-13T21:35:03.072Z,0.0
2023-09-13T21:40:01.135Z,0.0
2023-09-13T21:45:00.584Z,0.0
2023-09-13T21:50:00.868Z,0.0
2023-09-13T21:55:01.039Z,0.0
2023-09-13T22:00:00.780Z,0.0
2023-09-13T22:05:03.262Z,0.0
2023-09-13T22:10:00.693Z,0.0
2023-09-13T22:15:00.640Z,0.0
2023-09-13T22:20:01.032Z,0.0
2023-09-13T22:25:00.712Z,0.0
2023-09-13T22:30:00.904Z,0.0
2023-09-13T22:35:01.130Z,0.0
2023-09-13T22:40:01.719Z,0.0
2023-09-13T22:45:00.923Z,0.0
2023-09-13T22:50:00.976Z,0.0
2023-09-13T22:55:00.643Z,0.0
2023-09-13T23:00:01.053Z,0.0
2023-09-13T23:05:00.976Z,0.0
2023-09-13T23:10:01.107Z,0.0
2023-09-13T23:15:00.995Z,0.0
2023-09-13T23:20:00.743Z,0.0
2023-09-13T23:25:00.631Z,0.0
2023-09-13T23:30:00.705Z,0.0
2023-09-13T23:35:00.620Z,0.0
2023-09-13T23:40:00.703Z,0.0
2023-09-13T23:45:00.591Z,0.0
2023-09-13T23:50:00.912Z,0.0
2023-09-13T23:55:00.631Z,0.0
